createdAt,value
2023-03-04T00:00:00.252Z,2.80
2023-03-04T00:02:27.215Z,3.00
2023-03-04T00:04:54.325Z,2.60
2023-03-04T00:07:21.375Z,3.60
2023-03-04T00:09:48.435Z,2.10
2023-03-04T00:12:15.487Z,2.13
2023-03-04T00:14:43.976Z,2.60
2023-03-04T00:17:11.129Z,3.22
2023-03-04T00:19:38.358Z,1.70
2023-03-04T00:22:05.680Z,3.07
2023-03-04T00:24:33.013Z,3.00
2023-03-04T00:27:00.273Z,3.20
2023-03-04T00:29:27.407Z,3.80
2023-03-04T00:31:56.026Z,2.92
2023-03-04T00:34:23.048Z,2.23
2023-03-04T00:36:50.113Z,2.97
2023-03-04T00:39:17.278Z,2.13
2023-03-04T00:41:44.361Z,3.03
2023-03-04T00:44:11.409Z,2.63
2023-03-04T00:46:38.482Z,2.43
2023-03-04T00:49:07.053Z,3.50
2023-03-04T00:51:34.369Z,2.28
2023-03-04T00:54:01.418Z,2.88
2023-03-04T00:56:28.421Z,2.37
2023-03-04T00:58:55.558Z,2.23
2023-03-04T01:01:22.826Z,2.80
2023-03-04T01:03:49.956Z,3.10
2023-03-04T01:06:18.360Z,2.17
2023-03-04T01:08:45.344Z,3.33
2023-03-04T01:11:12.478Z,2.75
2023-03-04T01:13:39.888Z,2.93
2023-03-04T01:16:07.959Z,4.03
2023-03-04T01:18:35.037Z,2.30
2023-03-04T01:21:02.119Z,1.90
2023-03-04T01:23:30.508Z,3.22
2023-03-04T01:25:57.509Z,3.08
2023-03-04T01:28:24.587Z,2.93
2023-03-04T01:30:51.543Z,2.90
2023-03-04T01:33:18.583Z,2.87
2023-03-04T01:35:45.644Z,2.50
2023-03-04T01:38:13.101Z,2.77
2023-03-04T01:40:41.564Z,2.30
2023-03-04T01:43:15.856Z,2.63
2023-03-04T01:45:42.818Z,2.10
2023-03-04T01:48:13.019Z,3.30
2023-03-04T01:50:40.074Z,2.60
2023-03-04T01:53:07.193Z,3.27
2023-03-04T01:55:34.449Z,3.17
2023-03-04T01:58:05.766Z,2.83
2023-03-04T02:00:35.349Z,2.80
2023-03-04T02:03:07.224Z,2.33
2023-03-04T02:05:35.952Z,2.63
2023-03-04T02:08:04.691Z,1.87
2023-03-04T02:10:32.230Z,2.70
2023-03-04T02:12:59.780Z,2.37
2023-03-04T02:15:28.531Z,2.60
2023-03-04T02:17:55.609Z,2.33
2023-03-04T02:20:31.287Z,3.07
2023-03-04T02:23:09.554Z,2.50
2023-03-04T02:25:43.819Z,2.13
2023-03-04T02:28:12.278Z,2.17
2023-03-04T02:30:39.282Z,2.20
2023-03-04T02:33:07.327Z,2.33
2023-03-04T02:35:34.317Z,2.00
2023-03-04T02:38:01.394Z,2.03
2023-03-04T02:40:31.994Z,2.42
2023-03-04T02:42:59.583Z,2.43
2023-03-04T02:45:38.556Z,2.33
2023-03-04T02:48:06.568Z,2.72
2023-03-04T02:50:37.772Z,2.80
2023-03-04T02:53:04.994Z,2.63
2023-03-04T02:55:32.451Z,2.13
2023-03-04T02:57:59.662Z,2.43
2023-03-04T03:00:27.220Z,2.13
2023-03-04T03:02:57.266Z,2.10
2023-03-04T03:05:25.820Z,2.67
2023-03-04T03:07:52.857Z,3.10
2023-03-04T03:10:20.084Z,2.13
2023-03-04T03:12:47.317Z,2.65
2023-03-04T03:15:14.754Z,2.70
2023-03-04T03:17:42.082Z,2.20
2023-03-04T03:20:13.130Z,3.23
2023-03-04T03:22:40.580Z,2.08
2023-03-04T03:25:09.617Z,2.40
2023-03-04T03:27:36.666Z,2.30
2023-03-04T03:30:04.566Z,2.20
2023-03-04T03:32:31.660Z,2.50
2023-03-04T03:34:59.006Z,2.17
2023-03-04T03:37:27.488Z,2.53
2023-03-04T03:39:54.509Z,2.40
2023-03-04T03:42:21.705Z,2.73
2023-03-04T03:44:50.287Z,2.33
2023-03-04T03:47:17.460Z,2.90
2023-03-04T03:49:44.501Z,2.08
2023-03-04T03:52:11.602Z,2.05
2023-03-04T03:54:40.184Z,2.00
2023-03-04T03:57:07.213Z,2.07
2023-03-04T03:59:34.164Z,2.67
2023-03-04T04:02:01.293Z,2.25
2023-03-04T04:04:28.404Z,1.90
2023-03-04T04:06:55.504Z,2.37
2023-03-04T04:09:22.459Z,2.97
2023-03-04T04:11:50.823Z,2.05
2023-03-04T04:14:17.758Z,2.00
2023-03-04T04:16:44.888Z,2.20
2023-03-04T04:19:17.748Z,1.70
2023-03-04T04:21:50.450Z,2.28
2023-03-04T04:24:17.804Z,2.22
2023-03-04T04:26:44.884Z,2.83
2023-03-04T04:29:15.551Z,2.20
2023-03-04T04:31:45.996Z,2.15
2023-03-04T04:34:13.171Z,2.60
2023-03-04T04:36:40.892Z,2.95
2023-03-04T04:39:08.107Z,2.70
2023-03-04T04:41:39.250Z,2.33
2023-03-04T04:44:07.173Z,3.00
2023-03-04T04:46:35.611Z,2.00
2023-03-04T04:49:02.727Z,2.28
2023-03-04T04:51:38.845Z,2.73
2023-03-04T04:54:06.396Z,2.22
2023-03-04T04:56:34.947Z,2.35
2023-03-04T04:59:04.684Z,2.58
2023-03-04T05:01:35.663Z,2.65
2023-03-04T05:04:02.776Z,1.98
2023-03-04T05:06:29.842Z,2.38
2023-03-04T05:08:56.883Z,2.17
2023-03-04T05:11:23.955Z,2.53
2023-03-04T05:13:51.622Z,2.42
2023-03-04T05:16:19.455Z,2.40
2023-03-04T05:18:48.220Z,2.67
2023-03-04T05:21:15.368Z,2.72
2023-03-04T05:23:43.456Z,2.40
2023-03-04T05:26:16.675Z,2.17
2023-03-04T05:28:43.930Z,2.78
2023-03-04T05:31:18.052Z,2.85
2023-03-04T05:33:47.570Z,2.17
2023-03-04T05:36:14.718Z,2.42
2023-03-04T05:38:41.938Z,2.50
2023-03-04T05:41:09.200Z,2.67
2023-03-04T05:43:36.622Z,2.20
2023-03-04T05:46:09.202Z,1.97
2023-03-04T05:48:36.264Z,2.33
2023-03-04T05:51:07.771Z,2.37
2023-03-04T05:53:36.995Z,2.72
2023-03-04T05:56:08.067Z,2.90
2023-03-04T05:58:35.476Z,1.65
2023-03-04T06:01:03.205Z,2.45
2023-03-04T06:03:30.601Z,2.92
2023-03-04T06:05:58.272Z,2.57
2023-03-04T06:08:27.989Z,2.83
2023-03-04T06:10:56.658Z,2.10
2023-03-04T06:13:24.044Z,2.35
2023-03-04T06:15:55.091Z,2.60
2023-03-04T06:18:22.751Z,3.10
2023-03-04T06:20:49.904Z,2.78
2023-03-04T06:23:18.163Z,2.40
2023-03-04T06:25:46.620Z,2.13
2023-03-04T06:28:13.561Z,2.03
2023-03-04T06:30:43.905Z,1.90
2023-03-04T06:33:11.471Z,2.30
2023-03-04T06:35:41.610Z,3.63
2023-03-04T06:38:08.780Z,2.10
2023-03-04T06:40:36.051Z,2.20
2023-03-04T06:43:05.064Z,2.47
2023-03-04T06:45:32.008Z,2.05
2023-03-04T06:47:59.115Z,2.30
2023-03-04T06:50:29.418Z,1.98
2023-03-04T06:52:56.992Z,2.42
2023-03-04T06:55:24.156Z,2.35
2023-03-04T06:57:54.602Z,2.67
2023-03-04T07:00:24.610Z,2.00
2023-03-04T07:02:54.030Z,3.30
2023-03-04T07:05:28.859Z,2.50
2023-03-04T07:07:56.090Z,2.88
2023-03-04T07:10:23.446Z,3.30
2023-03-04T07:12:50.380Z,3.13
2023-03-04T07:15:17.402Z,3.08
2023-03-04T07:17:45.682Z,2.90
2023-03-04T07:20:13.059Z,3.07
2023-03-04T07:22:40.036Z,3.03
2023-03-04T07:25:07.726Z,2.83
2023-03-04T07:27:34.751Z,2.88
2023-03-04T07:30:02.752Z,2.70
2023-03-04T07:32:30.406Z,3.00
2023-03-04T07:34:59.145Z,3.35
2023-03-04T07:37:26.193Z,3.33
2023-03-04T07:39:53.204Z,3.72
2023-03-04T07:42:20.213Z,4.05
2023-03-04T07:44:47.202Z,3.42
2023-03-04T07:47:14.209Z,3.65
2023-03-04T07:49:41.280Z,3.15
2023-03-04T07:52:09.770Z,3.33
2023-03-04T07:54:37.061Z,3.92
2023-03-04T07:57:04.121Z,3.73
2023-03-04T07:59:31.086Z,3.13
2023-03-04T08:01:58.286Z,3.30
2023-03-04T08:04:25.371Z,3.22
2023-03-04T08:06:52.531Z,3.25
2023-03-04T08:09:20.854Z,2.95
2023-03-04T08:11:47.950Z,3.65
2023-03-04T08:14:15.268Z,3.67
2023-03-04T08:16:42.499Z,3.97
2023-03-04T08:19:09.589Z,4.45
2023-03-04T08:21:36.939Z,3.78
2023-03-04T08:24:08.603Z,4.00
2023-03-04T08:26:42.215Z,3.55
2023-03-04T08:29:10.964Z,3.70
2023-03-04T08:31:39.511Z,3.75
2023-03-04T08:34:08.604Z,3.80
2023-03-04T08:36:35.761Z,3.25
2023-03-04T08:39:03.446Z,3.38
2023-03-04T08:41:30.554Z,3.60
2023-03-04T08:44:00.655Z,3.35
2023-03-04T08:46:28.151Z,3.30
2023-03-04T08:48:55.206Z,3.33
2023-03-04T08:51:22.295Z,3.88
2023-03-04T08:53:49.247Z,3.58
2023-03-04T08:56:17.069Z,3.97
2023-03-04T08:58:44.091Z,3.08
2023-03-04T09:01:14.453Z,3.35
2023-03-04T09:03:41.916Z,3.25
2023-03-04T09:06:11.807Z,4.28
2023-03-04T09:08:38.751Z,3.63
2023-03-04T09:11:06.314Z,3.65
2023-03-04T09:13:34.007Z,3.50
2023-03-04T09:16:01.552Z,2.85
2023-03-04T09:18:30.057Z,2.72
2023-03-04T09:20:56.970Z,3.33
2023-03-04T09:23:24.071Z,2.70
2023-03-04T09:25:51.206Z,3.40
2023-03-04T09:28:19.577Z,2.85
2023-03-04T09:30:47.080Z,2.90
2023-03-04T09:33:14.741Z,2.70
2023-03-04T09:35:43.950Z,2.60
2023-03-04T09:38:11.221Z,2.65
2023-03-04T09:40:41.970Z,2.67
2023-03-04T09:43:18.933Z,2.22
2023-03-04T09:45:50.151Z,3.03
2023-03-04T09:48:21.726Z,2.00
2023-03-04T09:51:06.940Z,2.85
2023-03-04T09:53:40.561Z,2.78
2023-03-04T09:56:07.709Z,3.08
2023-03-04T09:58:47.083Z,2.83
2023-03-04T10:01:22.491Z,3.20
2023-03-04T10:03:54.970Z,2.60
2023-03-04T10:06:24.170Z,2.72
2023-03-04T10:08:57.436Z,2.35
2023-03-04T10:11:28.940Z,2.47
2023-03-04T10:14:04.346Z,2.65
2023-03-04T10:16:36.613Z,3.00
2023-03-04T10:19:21.677Z,2.47
2023-03-04T10:21:51.340Z,2.25
2023-03-04T10:24:22.268Z,1.85
2023-03-04T10:26:54.737Z,2.53
2023-03-04T10:29:24.586Z,2.17
2023-03-04T10:31:52.202Z,2.40
2023-03-04T10:34:19.309Z,2.28
2023-03-04T10:36:59.166Z,2.53
2023-03-04T10:39:29.304Z,1.88
2023-03-04T10:42:02.167Z,1.90
2023-03-04T10:44:30.980Z,2.00
2023-03-04T10:46:58.847Z,1.98
2023-03-04T10:49:27.393Z,1.63
2023-03-04T10:52:03.512Z,1.77
2023-03-04T10:54:35.496Z,1.80
2023-03-04T10:57:04.991Z,1.70
2023-03-04T10:59:46.304Z,1.75
2023-03-04T11:02:21.467Z,1.40
2023-03-04T11:04:55.326Z,1.40
2023-03-04T11:09:51.857Z,0.65
2023-03-04T11:12:21.936Z,0.82
2023-03-04T11:14:50.647Z,1.08
2023-03-04T11:17:21.312Z,1.13
2023-03-04T11:19:51.603Z,0.93
2023-03-04T11:22:22.050Z,0.88
2023-03-04T11:24:57.014Z,0.80
2023-03-04T11:27:32.041Z,0.55
2023-03-04T11:30:04.645Z,0.70
2023-03-04T11:32:37.299Z,0.52
2023-03-04T11:35:16.262Z,0.55
2023-03-04T11:37:51.139Z,0.63
2023-03-04T11:40:26.354Z,0.50
2023-03-04T11:42:56.181Z,0.50
2023-03-04T11:45:33.844Z,0.75
2023-03-04T11:48:09.294Z,0.57
2023-03-04T11:50:48.255Z,0.47
2023-03-04T11:53:33.605Z,0.50
2023-03-04T11:56:16.949Z,0.30
2023-03-04T11:59:04.656Z,0.50
2023-03-04T12:01:40.412Z,0.73
2023-03-04T12:04:24.824Z,0.75
2023-03-04T12:07:06.008Z,0.70
2023-03-04T12:09:42.807Z,0.80
2023-03-04T12:12:27.019Z,0.80
2023-03-04T12:17:44.214Z,0.77
2023-03-04T12:20:27.784Z,0.60
2023-03-04T12:23:01.859Z,0.75
2023-03-04T12:25:40.302Z,0.70
2023-03-04T12:28:27.882Z,0.57
2023-03-04T12:31:27.033Z,0.38
2023-03-04T12:34:08.988Z,0.82
2023-03-04T12:36:44.122Z,0.80
2023-03-04T12:39:26.878Z,1.02
2023-03-04T12:42:05.297Z,0.55
2023-03-04T12:44:43.724Z,0.98
2023-03-04T12:47:28.131Z,0.50
2023-03-04T12:50:04.751Z,0.80
2023-03-04T12:52:45.031Z,0.57
2023-03-04T12:55:17.449Z,0.68
2023-03-04T12:57:45.994Z,0.80
2023-03-04T13:00:29.930Z,0.60
2023-03-04T13:03:11.151Z,0.55
2023-03-04T13:06:10.692Z,0.60
2023-03-04T13:08:49.120Z,0.80
2023-03-04T13:11:47.313Z,0.60
2023-03-04T13:14:34.764Z,1.33
2023-03-04T13:17:38.142Z,1.17
2023-03-04T13:20:36.773Z,0.85
2023-03-04T13:23:18.457Z,0.77
2023-03-04T13:25:48.105Z,0.88
2023-03-04T13:28:28.176Z,0.90
2023-03-04T13:31:27.752Z,0.80
2023-03-04T13:34:04.800Z,0.77
2023-03-04T13:36:48.458Z,1.02
2023-03-04T13:39:35.393Z,1.48
2023-03-04T13:42:04.618Z,0.80
2023-03-04T13:45:05.940Z,1.05
2023-03-04T13:47:49.042Z,0.70
2023-03-04T13:50:38.303Z,0.75
2023-03-04T13:53:33.269Z,1.08
2023-03-04T13:56:21.313Z,1.00
2023-03-04T13:58:51.282Z,1.08
2023-03-04T14:01:25.824Z,0.90
2023-03-04T14:03:53.137Z,0.90
2023-03-04T14:06:25.404Z,1.02
2023-03-04T14:08:53.901Z,0.88
2023-03-04T14:11:29.542Z,0.63
2023-03-04T14:13:59.266Z,0.80
2023-03-04T14:16:29.224Z,0.77
2023-03-04T14:19:01.703Z,1.02
2023-03-04T14:21:30.850Z,0.85
2023-03-04T14:24:03.824Z,0.73
2023-03-04T14:26:31.330Z,0.73
2023-03-04T14:28:59.844Z,0.90
2023-03-04T14:31:30.191Z,0.50
2023-03-04T14:34:02.537Z,0.50
2023-03-04T14:36:33.713Z,0.70
2023-03-04T14:39:02.994Z,0.52
2023-03-04T14:41:34.240Z,0.82
2023-03-04T14:44:08.739Z,0.80
2023-03-04T14:46:40.873Z,1.10
2023-03-04T14:49:13.165Z,1.67
2023-03-04T14:51:47.254Z,0.93
2023-03-04T14:54:39.008Z,1.00
2023-03-04T14:57:26.094Z,1.00
2023-03-04T14:59:53.916Z,1.20
2023-03-04T15:02:31.337Z,1.23
2023-03-04T15:05:01.440Z,1.63
2023-03-04T15:07:35.714Z,1.10
2023-03-04T15:10:05.669Z,0.85
2023-03-04T15:12:35.425Z,1.00
2023-03-04T15:15:05.611Z,1.05
2023-03-04T15:17:37.983Z,1.10
2023-03-04T15:20:24.824Z,1.10
2023-03-04T15:23:02.554Z,1.20
2023-03-04T15:25:30.289Z,1.02
2023-03-04T15:27:58.301Z,1.30
2023-03-04T15:30:27.849Z,1.15
2023-03-04T15:32:55.872Z,1.05
2023-03-04T15:35:24.410Z,1.10
2023-03-04T15:37:54.718Z,1.33
2023-03-04T15:40:28.427Z,1.52
2023-03-04T15:42:57.523Z,1.20
2023-03-04T15:45:26.894Z,1.15
2023-03-04T15:47:53.997Z,1.38
2023-03-04T15:50:21.802Z,1.35
2023-03-04T15:52:51.091Z,1.30
2023-03-04T15:55:20.227Z,1.42
2023-03-04T15:57:53.269Z,1.42
2023-03-04T16:00:21.177Z,1.52
2023-03-04T16:02:48.838Z,1.77
2023-03-04T16:05:16.607Z,1.00
2023-03-04T16:07:45.540Z,1.15
2023-03-04T16:10:18.404Z,1.40
2023-03-04T16:12:45.540Z,1.52
2023-03-04T16:15:20.593Z,1.50
2023-03-04T16:17:48.019Z,1.30
2023-03-04T16:20:16.841Z,1.13
2023-03-04T16:22:45.811Z,0.93
2023-03-04T16:25:14.123Z,1.33
2023-03-04T16:27:41.875Z,1.60
2023-03-04T16:30:13.488Z,2.35
2023-03-04T16:32:42.015Z,1.70
2023-03-04T16:35:09.824Z,1.55
2023-03-04T16:37:37.433Z,1.20
2023-03-04T16:40:07.219Z,1.60
2023-03-04T16:42:34.196Z,1.80
2023-03-04T16:45:01.135Z,2.00
2023-03-04T16:47:28.130Z,1.70
2023-03-04T16:49:56.630Z,1.70
2023-03-04T16:52:27.837Z,0.93
2023-03-04T16:54:54.993Z,1.38
2023-03-04T16:57:22.361Z,1.13
2023-03-04T16:59:49.929Z,2.03
2023-03-04T17:02:17.733Z,1.50
2023-03-04T17:04:48.172Z,1.65
2023-03-04T17:07:16.732Z,1.48
2023-03-04T17:09:44.138Z,1.55
2023-03-04T17:12:12.687Z,1.30
2023-03-04T17:14:40.147Z,1.33
2023-03-04T17:17:07.703Z,1.13
2023-03-04T17:19:34.939Z,1.35
2023-03-04T17:22:02.903Z,1.10
2023-03-04T17:24:31.344Z,1.45
2023-03-04T17:26:58.378Z,1.33
2023-03-04T17:29:25.394Z,1.20
2023-03-04T17:31:52.467Z,0.90
2023-03-04T17:34:19.529Z,0.70
2023-03-04T17:36:46.560Z,1.20
2023-03-04T17:39:13.905Z,0.80
2023-03-04T17:41:42.225Z,1.25
2023-03-04T17:44:10.371Z,2.30
2023-03-04T17:46:39.194Z,2.58
2023-03-04T17:49:06.185Z,2.50
2023-03-04T17:51:35.607Z,3.30
2023-03-04T17:54:03.099Z,1.80
2023-03-04T17:56:30.920Z,2.63
2023-03-04T17:59:01.084Z,16.10
2023-03-04T18:01:29.901Z,5.93
2023-03-04T18:03:57.165Z,5.65
2023-03-04T18:06:25.324Z,4.00
2023-03-04T18:08:53.107Z,3.65
2023-03-04T18:11:20.971Z,3.78
2023-03-04T18:13:48.701Z,2.88
2023-03-04T18:16:23.636Z,2.27
2023-03-04T18:18:51.381Z,2.00
2023-03-04T18:21:18.695Z,1.90
2023-03-04T18:23:46.061Z,2.10
2023-03-04T18:26:13.544Z,2.80
2023-03-04T18:28:40.565Z,2.05
2023-03-04T18:31:07.555Z,2.30
2023-03-04T18:33:36.385Z,2.07
2023-03-04T18:36:06.155Z,2.05
2023-03-04T18:38:33.850Z,2.58
2023-03-04T18:41:02.425Z,2.97
2023-03-04T18:43:29.499Z,2.87
2023-03-04T18:46:05.777Z,3.53
2023-03-04T18:48:38.078Z,4.33
2023-03-04T18:51:05.425Z,5.45
2023-03-04T18:53:32.617Z,5.40
2023-03-04T18:56:03.853Z,5.55
2023-03-04T18:58:33.723Z,5.60
2023-03-04T19:01:05.005Z,4.63
2023-03-04T19:03:34.337Z,6.03
2023-03-04T19:06:02.764Z,4.90
2023-03-04T19:08:29.807Z,5.70
2023-03-04T19:10:57.081Z,4.93
2023-03-04T19:13:24.128Z,4.35
2023-03-04T19:15:51.739Z,4.28
2023-03-04T19:18:18.848Z,4.53
2023-03-04T19:20:46.254Z,5.00
2023-03-04T19:23:15.501Z,5.17
2023-03-04T19:25:43.589Z,4.73
2023-03-04T19:28:11.424Z,5.50
2023-03-04T19:30:39.475Z,5.68
2023-03-04T19:33:07.117Z,6.00
2023-03-04T19:35:34.732Z,6.93
2023-03-04T19:38:01.873Z,9.63
2023-03-04T19:40:30.308Z,8.07
2023-03-04T19:42:58.064Z,6.15
2023-03-04T19:45:25.654Z,5.80
2023-03-04T19:47:52.818Z,6.50
2023-03-04T19:50:20.050Z,6.38
2023-03-04T19:52:47.170Z,7.50
2023-03-04T19:55:14.265Z,6.07
2023-03-04T19:57:42.797Z,7.35
2023-03-04T20:00:11.343Z,7.10
2023-03-04T20:02:38.671Z,6.82
2023-03-04T20:05:07.094Z,6.13
2023-03-04T20:07:34.065Z,5.67
2023-03-04T20:10:01.184Z,5.95
2023-03-04T20:12:28.189Z,5.35
2023-03-04T20:14:56.658Z,7.82
2023-03-04T20:17:23.772Z,10.20
2023-03-04T20:19:50.802Z,11.05
2023-03-04T20:22:17.888Z,9.07
2023-03-04T20:24:44.829Z,9.40
2023-03-04T20:27:14.229Z,10.85
2023-03-04T20:29:41.263Z,9.23
2023-03-04T20:32:09.933Z,10.82
2023-03-04T20:34:37.271Z,6.00
2023-03-04T20:37:04.320Z,7.22
2023-03-04T20:39:31.299Z,8.45
2023-03-04T20:41:58.864Z,10.10
2023-03-04T20:44:25.969Z,7.93
2023-03-04T20:46:53.054Z,9.82
2023-03-04T20:49:26.327Z,25.20
2023-03-04T20:51:54.355Z,9.55
2023-03-04T20:54:22.037Z,16.17
2023-03-04T20:56:49.435Z,11.88
2023-03-04T20:59:16.499Z,7.18
2023-03-04T21:01:45.146Z,14.38
2023-03-04T21:04:13.067Z,13.97
2023-03-04T21:06:41.647Z,12.47
2023-03-04T21:09:11.663Z,9.20
2023-03-04T21:11:42.205Z,13.07
2023-03-04T21:14:14.013Z,14.57
2023-03-04T21:16:41.124Z,23.13
2023-03-04T21:19:13.691Z,24.50
2023-03-04T21:21:42.165Z,25.67
2023-03-04T21:24:13.588Z,30.33
2023-03-04T21:26:41.541Z,29.05
2023-03-04T21:29:08.636Z,24.50
2023-03-04T21:31:40.821Z,18.07
2023-03-04T21:34:14.836Z,8.43
2023-03-04T21:39:14.234Z,7.70
2023-03-04T21:41:41.292Z,4.90
2023-03-04T21:44:10.080Z,8.20
2023-03-04T21:46:38.747Z,6.60
2023-03-04T21:49:06.404Z,6.47
2023-03-04T21:51:33.510Z,7.90
2023-03-04T21:54:01.974Z,6.30
2023-03-04T21:56:29.003Z,4.70
2023-03-04T21:58:59.331Z,7.20
2023-03-04T22:01:26.491Z,9.73
2023-03-04T22:03:54.041Z,7.85
2023-03-04T22:06:23.417Z,9.65
2023-03-04T22:08:51.413Z,9.87
2023-03-04T22:11:19.907Z,10.03
2023-03-04T22:13:47.115Z,7.18
2023-03-04T22:16:14.171Z,7.53
2023-03-04T22:18:42.434Z,6.77
2023-03-04T22:21:11.326Z,8.33
2023-03-04T22:23:38.730Z,4.87
2023-03-04T22:26:08.092Z,7.67
2023-03-04T22:28:37.668Z,5.15
2023-03-04T22:31:14.150Z,5.20
2023-03-04T22:33:41.510Z,5.95
2023-03-04T22:36:08.870Z,5.55
2023-03-04T22:38:35.819Z,5.03
2023-03-04T22:41:03.091Z,4.93
2023-03-04T22:43:30.113Z,4.10
2023-03-04T22:46:00.355Z,4.97
2023-03-04T22:48:27.893Z,4.47
2023-03-04T22:50:54.845Z,4.78
2023-03-04T22:53:23.285Z,5.07
2023-03-04T22:55:58.206Z,4.97
2023-03-04T22:58:25.359Z,4.03
2023-03-04T23:00:52.492Z,4.25
2023-03-04T23:03:20.884Z,5.17
2023-03-04T23:05:47.813Z,5.10
2023-03-04T23:08:14.956Z,5.20
2023-03-04T23:10:42.429Z,4.72
2023-03-04T23:13:09.510Z,5.00
2023-03-04T23:15:36.455Z,4.77
2023-03-04T23:18:03.527Z,5.37
2023-03-04T23:20:31.993Z,5.07
2023-03-04T23:22:59.014Z,5.83
2023-03-04T23:25:26.224Z,5.20
2023-03-04T23:27:53.358Z,5.88
2023-03-04T23:30:20.381Z,6.20
2023-03-04T23:32:47.338Z,5.03
2023-03-04T23:35:14.317Z,6.20
2023-03-04T23:37:42.774Z,6.43
2023-03-04T23:40:11.345Z,5.33
2023-03-04T23:42:38.928Z,5.47
2023-03-04T23:45:07.443Z,5.03
2023-03-04T23:47:34.877Z,4.57
2023-03-04T23:50:03.872Z,4.40
2023-03-04T23:52:30.980Z,4.78
2023-03-04T23:54:59.344Z,5.10
2023-03-04T23:57:26.498Z,5.37
2023-03-04T23:59:53.641Z,4.97
